Time;durP1;ratioP1;P1;durP2;ratioP2;P2;SDS_P1;SDS_P2;PMS_P1;PMS_P2;Temp;Humidity;BMP_temperature;BMP_pressure;BME280_temperature;BME280_humidity;BME280_pressure;Samples;Min_cycle;Max_cycle;Signal;HPM_P1;HPM_P2
2023/09/23 00:02:22;;;;;;;5.30;4.03;;;13.40;1.00;;;;;;5032842;28;20464;-80
2023/09/23 00:04:47;;;;;;;4.40;4.00;;;13.40;1.00;;;;;;5053094;28;20715;-82
2023/09/23 00:07:13;;;;;;;5.90;3.50;;;13.40;1.00;;;;;;5052320;28;20436;-82
2023/09/23 00:09:39;;;;;;;4.97;4.00;;;13.50;1.00;;;;;;5052627;28;20192;-82
2023/09/23 00:12:05;;;;;;;4.57;3.73;;;13.50;1.00;;;;;;5033765;28;20201;-82
2023/09/23 00:14:30;;;;;;;5.90;4.60;;;13.50;1.00;;;;;;5052135;28;20194;-82
2023/09/23 00:16:56;;;;;;;7.73;5.80;;;13.60;1.00;;;;;;5051220;28;20436;-82
2023/09/23 00:19:22;;;;;;;7.93;6.40;;;13.60;1.00;;;;;;5051166;28;20186;-81
2023/09/23 00:21:49;;;;;;;8.27;6.50;;;13.60;1.00;;;;;;5052038;28;20218;-82
2023/09/23 00:24:14;;;;;;;7.77;6.30;;;13.60;1.00;;;;;;5051774;28;20178;-81
2023/09/23 00:26:40;;;;;;;10.73;8.00;;;13.70;1.00;;;;;;5051062;28;20485;-81
2023/09/23 00:29:06;;;;;;;8.83;8.03;;;13.70;1.00;;;;;;5049797;28;20186;-82
2023/09/23 00:31:31;;;;;;;8.53;7.50;;;13.70;1.00;;;;;;5054621;28;20204;-82
2023/09/23 00:33:57;;;;;;;8.93;7.60;;;13.70;1.00;;;;;;5031969;28;20204;-81
2023/09/23 00:36:22;;;;;;;8.53;7.70;;;13.70;1.00;;;;;;5051600;28;20194;-79
2023/09/23 00:38:48;;;;;;;9.60;8.20;;;13.70;1.00;;;;;;5051559;28;20194;-82
2023/09/23 00:41:14;;;;;;;9.17;8.20;;;13.70;1.00;;;;;;5051107;28;20190;-83
2023/09/23 00:43:40;;;;;;;9.00;8.10;;;13.70;1.00;;;;;;5052168;28;20676;-80
2023/09/23 00:46:06;;;;;;;8.93;8.03;;;13.60;1.00;;;;;;5048460;28;20228;-82
2023/09/23 00:48:38;;;;;;;9.03;7.80;;;13.60;1.00;;;;;;5056178;28;20548;-83
2023/09/23 00:51:04;;;;;;;9.80;7.80;;;13.50;1.00;;;;;;5051795;28;20432;-81
2023/09/23 00:53:31;;;;;;;9.37;7.50;;;13.40;1.00;;;;;;5052641;28;20490;-81
2023/09/23 00:56:00;;;;;;;6.73;6.00;;;13.30;1.00;;;;;;5051427;28;20440;-82
2023/09/23 00:58:26;;;;;;;8.23;6.53;;;13.20;1.00;;;;;;5052482;28;20443;-81
2023/09/23 01:00:54;;;;;;;9.70;6.60;;;13.20;1.00;;;;;;5052202;28;20474;-81
2023/09/23 01:03:20;;;;;;;9.97;6.90;;;13.10;1.00;;;;;;5045884;28;20217;-82
2023/09/23 01:05:48;;;;;;;6.43;5.73;;;13.10;1.00;;;;;;5050575;28;20489;-81
2023/09/23 01:08:29;;;;;;;7.47;6.37;;;13.00;1.00;;;;;;5033899;28;20432;-82
2023/09/23 01:10:55;;;;;;;8.37;6.07;;;13.00;1.00;;;;;;5051224;28;20427;-81
2023/09/23 01:13:24;;;;;;;7.47;5.40;;;12.90;1.00;;;;;;5052229;28;20452;-82
2023/09/23 01:15:51;;;;;;;7.13;5.20;;;12.90;1.00;;;;;;5052058;28;20670;-81
2023/09/23 01:18:17;;;;;;;7.73;5.23;;;12.80;1.00;;;;;;5049052;28;20443;-81
2023/09/23 01:20:48;;;;;;;7.47;4.73;;;12.80;1.00;;;;;;5036128;28;20455;-82
2023/09/23 01:23:14;;;;;;;5.03;3.90;;;12.80;1.00;;;;;;5037889;28;20469;-84
2023/09/23 01:25:39;;;;;;;9.37;4.23;;;12.70;1.00;;;;;;5057471;28;20791;-82
2023/09/23 01:28:11;;;;;;;7.23;4.27;;;12.70;1.00;;;;;;5054837;28;20182;-82
2023/09/23 01:30:37;;;;;;;4.60;3.53;;;12.70;1.00;;;;;;5054711;28;20182;-81
2023/09/23 01:33:07;;;;;;;9.57;3.60;;;12.70;1.00;;;;;;5055151;28;20460;-81
2023/09/23 01:35:33;;;;;;;4.30;3.13;;;12.60;1.00;;;;;;5054508;28;20519;-82
2023/09/23 01:37:59;;;;;;;5.07;3.20;;;12.60;1.00;;;;;;5056725;28;20448;-82
2023/09/23 01:40:29;;;;;;;10.60;3.00;;;12.60;1.00;;;;;;5054363;28;20486;-81
2023/09/23 01:42:54;;;;;;;4.10;3.47;;;12.60;1.00;;;;;;5037002;28;20578;-82
2023/09/23 01:45:22;;;;;;;3.43;2.77;;;12.50;1.00;;;;;;5053300;28;21161;-83
2023/09/23 01:47:48;;;;;;;5.43;2.90;;;12.50;1.00;;;;;;5054135;28;20178;-82
2023/09/23 01:50:13;;;;;;;4.87;2.57;;;12.50;1.00;;;;;;5036932;28;20496;-82
2023/09/23 01:52:43;;;;;;;14.27;3.30;;;12.40;1.00;;;;;;5054722;28;20331;-83
2023/09/23 01:55:10;;;;;;;4.30;2.50;;;12.40;1.00;;;;;;5055180;28;20260;-83
2023/09/23 01:57:36;;;;;;;3.43;2.17;;;12.40;1.00;;;;;;5048214;28;20440;-82
2023/09/23 02:00:04;;;;;;;4.20;2.80;;;12.40;1.00;;;;;;5054256;28;20787;-83
2023/09/23 02:02:30;;;;;;;4.47;2.50;;;12.40;1.00;;;;;;5035904;28;20218;-82
2023/09/23 02:04:56;;;;;;;5.00;2.00;;;12.30;1.00;;;;;;5035936;28;20874;-83
2023/09/23 02:07:22;;;;;;;4.63;2.20;;;12.30;1.00;;;;;;5054395;28;20665;-81
2023/09/23 02:09:47;;;;;;;8.40;2.50;;;12.30;1.00;;;;;;5052641;28;20189;-82
2023/09/23 02:12:14;;;;;;;3.43;2.00;;;12.30;1.00;;;;;;5032984;28;20542;-82
2023/09/23 02:14:40;;;;;;;5.40;2.13;;;12.30;1.00;;;;;;5036098;28;20406;-82
2023/09/23 02:17:06;;;;;;;8.23;2.07;;;12.30;1.00;;;;;;5053859;28;20456;-81
2023/09/23 02:19:31;;;;;;;3.00;1.80;;;12.30;1.00;;;;;;5051332;28;20448;-82
2023/09/23 02:21:57;;;;;;;4.23;1.60;;;12.30;1.00;;;;;;5052929;28;20217;-82
2023/09/23 02:24:23;;;;;;;3.00;1.90;;;12.30;1.00;;;;;;5052398;28;20185;-82
2023/09/23 02:26:49;;;;;;;3.17;1.50;;;12.30;1.00;;;;;;5055667;28;20190;-81
2023/09/23 02:29:15;;;;;;;8.00;2.17;;;12.30;1.00;;;;;;5053076;28;20498;-80
2023/09/23 02:31:47;;;;;;;4.07;1.97;;;12.20;1.00;;;;;;5046353;28;20284;-81
2023/09/23 02:34:16;;;;;;;8.23;2.50;;;12.20;1.00;;;;;;5036855;28;20806;-81
2023/09/23 02:36:43;;;;;;;3.77;2.07;;;12.20;1.00;;;;;;5037940;28;20440;-82
2023/09/23 02:39:15;;;;;;;2.70;1.57;;;12.20;1.00;;;;;;5051740;28;20448;-81
2023/09/23 02:41:41;;;;;;;7.80;2.53;;;12.20;1.00;;;;;;5030683;28;20611;-81
2023/09/23 02:44:07;;;;;;;5.40;1.80;;;12.20;1.00;;;;;;5052815;28;20910;-82
2023/09/23 02:46:33;;;;;;;10.83;2.23;;;12.20;1.00;;;;;;5052034;28;20182;-81
2023/09/23 02:48:59;;;;;;;5.47;2.07;;;12.20;1.00;;;;;;5052308;28;20439;-81
2023/09/23 02:51:25;;;;;;;2.20;1.67;;;12.20;1.00;;;;;;5052519;28;20460;-81
2023/09/23 02:53:50;;;;;;;4.20;1.70;;;12.20;1.00;;;;;;5051203;28;20208;-82
2023/09/23 02:56:18;;;;;;;3.73;1.60;;;12.20;1.00;;;;;;5034909;28;20238;-80
2023/09/23 02:58:44;;;;;;;6.40;2.40;;;12.20;1.00;;;;;;5052865;28;20224;-81
2023/09/23 03:01:14;;;;;;;4.80;2.00;;;12.20;1.00;;;;;;5033787;28;20462;-80
2023/09/23 03:03:40;;;;;;;4.27;1.40;;;12.20;1.00;;;;;;5052995;28;20802;-81
2023/09/23 03:06:10;;;;;;;6.30;2.10;;;12.10;1.00;;;;;;5034488;28;20428;-82
2023/09/23 03:08:37;;;;;;;3.90;1.90;;;12.10;1.00;;;;;;5052459;28;20445;-81
2023/09/23 03:11:06;;;;;;;4.87;1.63;;;12.10;1.00;;;;;;5050417;28;21098;-80
2023/09/23 03:13:34;;;;;;;4.33;2.03;;;12.10;1.00;;;;;;5045034;28;20440;-80
2023/09/23 03:16:08;;;;;;;7.03;2.20;;;12.10;1.00;;;;;;5048763;28;20433;-82
2023/09/23 03:18:44;;;;;;;5.53;1.90;;;12.10;1.00;;;;;;5049300;28;20435;-81
2023/09/23 03:21:11;;;;;;;5.67;2.10;;;12.10;1.00;;;;;;5048441;28;20495;-81
2023/09/23 03:23:39;;;;;;;4.63;1.53;;;12.10;1.00;;;;;;5049560;28;22349;-81
2023/09/23 03:26:06;;;;;;;4.13;1.93;;;12.10;1.00;;;;;;5055495;28;20436;-80
2023/09/23 03:28:33;;;;;;;3.30;2.00;;;12.00;1.00;;;;;;5034789;28;20428;-81
2023/09/23 03:31:03;;;;;;;4.50;1.97;;;12.00;1.00;;;;;;5033997;28;20468;-81
2023/09/23 03:33:29;;;;;;;4.37;2.00;;;12.00;1.00;;;;;;5052393;28;20440;-81
2023/09/23 03:35:57;;;;;;;4.70;1.97;;;12.00;1.00;;;;;;5053186;28;20462;-82
2023/09/23 03:38:24;;;;;;;2.70;1.97;;;12.00;1.00;;;;;;5053186;28;20417;-82
2023/09/23 03:40:52;;;;;;;6.10;1.97;;;12.10;1.00;;;;;;5034228;28;20878;-81
2023/09/23 03:43:17;;;;;;;8.90;2.83;;;12.10;1.00;;;;;;5062803;28;20472;-81
2023/09/23 03:45:43;;;;;;;5.10;1.83;;;12.00;1.00;;;;;;5050182;28;20435;-82
2023/09/23 03:48:10;;;;;;;3.30;2.30;;;12.10;1.00;;;;;;5050478;28;20548;-81
2023/09/23 03:50:36;;;;;;;6.43;2.17;;;12.10;1.00;;;;;;5051406;28;20202;-80
2023/09/23 03:53:02;;;;;;;6.70;1.87;;;12.00;1.00;;;;;;5051054;28;21015;-81
2023/09/23 03:55:28;;;;;;;5.73;1.90;;;12.00;1.00;;;;;;5049527;28;20444;-82
2023/09/23 03:57:54;;;;;;;7.77;2.27;;;12.00;1.00;;;;;;5035075;28;20513;-82
2023/09/23 04:00:20;;;;;;;5.50;2.23;;;12.00;1.00;;;;;;5050359;28;20432;-82
2023/09/23 04:02:47;;;;;;;6.37;2.10;;;12.00;1.00;;;;;;5050899;28;20218;-83
2023/09/23 04:05:14;;;;;;;2.70;1.97;;;12.00;1.00;;;;;;5053712;28;20451;-81
2023/09/23 04:07:41;;;;;;;5.43;2.80;;;12.00;1.00;;;;;;5032983;28;21101;-81
2023/09/23 04:10:08;;;;;;;7.20;2.80;;;12.00;1.00;;;;;;5033246;28;20976;-81
2023/09/23 04:12:33;;;;;;;7.23;2.93;;;12.00;1.00;;;;;;5051128;28;20969;-82
2023/09/23 04:14:58;;;;;;;7.03;2.90;;;12.00;1.00;;;;;;5051425;28;20527;-82
2023/09/23 04:17:24;;;;;;;8.90;2.40;;;11.90;1.00;;;;;;5033454;28;20204;-83
2023/09/23 04:19:50;;;;;;;4.10;2.50;;;11.90;1.00;;;;;;5049052;28;20185;-81
2023/09/23 04:22:18;;;;;;;8.40;3.00;;;11.90;1.00;;;;;;5052987;28;20236;-81
2023/09/23 04:24:43;;;;;;;5.33;2.37;;;11.90;1.00;;;;;;5050829;28;20193;-82
2023/09/23 04:27:10;;;;;;;5.67;2.57;;;11.90;1.00;;;;;;5050841;28;20444;-81
2023/09/23 04:29:36;;;;;;;6.30;2.70;;;11.90;1.00;;;;;;5049823;28;20181;-81
2023/09/23 04:32:01;;;;;;;4.33;3.10;;;11.90;1.00;;;;;;5050275;28;20460;-81
2023/09/23 04:34:27;;;;;;;6.57;2.70;;;11.90;1.00;;;;;;5030817;28;20179;-83
2023/09/23 04:36:52;;;;;;;6.00;2.87;;;11.90;1.00;;;;;;5050436;28;20209;-81
2023/09/23 04:39:18;;;;;;;4.20;2.70;;;11.90;1.00;;;;;;5051177;28;20190;-81
2023/09/23 04:41:44;;;;;;;8.03;3.30;;;11.90;1.00;;;;;;5044247;28;20213;-81
2023/09/23 04:44:09;;;;;;;4.47;3.40;;;11.90;1.00;;;;;;5049042;28;20186;-80
2023/09/23 04:46:35;;;;;;;5.27;2.70;;;11.90;1.00;;;;;;5049168;28;20821;-82
2023/09/23 04:49:02;;;;;;;6.43;3.33;;;11.90;1.00;;;;;;5032336;28;20589;-81
2023/09/23 04:51:28;;;;;;;4.53;3.30;;;11.90;1.00;;;;;;5049205;28;20529;-80
2023/09/23 04:53:53;;;;;;;6.23;3.07;;;11.80;1.00;;;;;;5047297;28;20543;-81
2023/09/23 04:56:19;;;;;;;4.50;2.97;;;11.80;1.00;;;;;;5056230;28;20198;-82
2023/09/23 04:58:44;;;;;;;5.10;3.17;;;11.80;1.00;;;;;;5046650;28;20197;-82
2023/09/23 05:01:14;;;;;;;3.43;3.13;;;11.80;1.00;;;;;;5031994;28;20670;-80
2023/09/23 05:03:42;;;;;;;8.30;3.20;;;11.80;1.00;;;;;;5031859;28;20738;-81
2023/09/23 05:06:10;;;;;;;7.80;2.60;;;11.80;1.00;;;;;;5028113;28;20794;-80
2023/09/23 05:08:36;;;;;;;6.73;3.47;;;11.80;1.00;;;;;;5031706;28;20424;-81
2023/09/23 05:11:03;;;;;;;10.10;3.20;;;11.80;1.00;;;;;;5048788;28;20816;-81
2023/09/23 05:13:29;;;;;;;6.03;2.63;;;11.80;1.00;;;;;;5057859;28;20318;-81
2023/09/23 05:15:54;;;;;;;10.53;3.00;;;11.80;1.00;;;;;;5050321;28;20528;-81
2023/09/23 05:18:20;;;;;;;6.70;2.50;;;11.80;1.00;;;;;;5030681;28;20535;-81
2023/09/23 05:20:47;;;;;;;7.53;3.00;;;11.80;1.00;;;;;;5049746;28;20194;-81
2023/09/23 05:23:13;;;;;;;6.60;2.90;;;11.80;1.00;;;;;;5048044;28;20229;-81
2023/09/23 05:25:41;;;;;;;5.80;2.80;;;11.80;1.00;;;;;;5036882;28;20512;-79
2023/09/23 05:28:06;;;;;;;7.20;3.00;;;11.80;1.00;;;;;;5046438;28;20465;-81
2023/09/23 05:30:32;;;;;;;7.30;2.73;;;11.80;1.00;;;;;;5033700;28;20429;-81
2023/09/23 05:32:57;;;;;;;7.50;2.63;;;11.90;1.00;;;;;;5049882;28;20717;-82
2023/09/23 05:35:24;;;;;;;4.97;3.13;;;11.90;1.00;;;;;;5049581;28;20193;-81
2023/09/23 05:37:51;;;;;;;17.77;3.00;;;11.90;1.00;;;;;;5023139;28;20194;-81
2023/09/23 05:40:27;;;;;;;9.43;2.80;;;12.00;1.00;;;;;;5041696;28;20436;-81
2023/09/23 05:42:53;;;;;;;5.77;3.23;;;12.00;1.00;;;;;;5025747;28;20590;-81
2023/09/23 05:45:24;;;;;;;6.53;3.17;;;12.10;1.00;;;;;;5026797;28;21029;-82
2023/09/23 05:47:52;;;;;;;6.40;2.23;;;12.10;1.00;;;;;;5029575;28;20442;-81
2023/09/23 05:50:19;;;;;;;5.13;2.40;;;12.20;1.00;;;;;;5043040;28;20424;-81
2023/09/23 05:52:45;;;;;;;6.30;2.53;;;12.30;1.00;;;;;;5032366;28;20828;-81
2023/09/23 05:55:11;;;;;;;4.83;2.30;;;12.40;1.00;;;;;;5050174;28;20464;-80
2023/09/23 05:57:42;;;;;;;7.07;2.53;;;12.50;1.00;;;;;;5048355;28;21064;-82
2023/09/23 06:00:10;;;;;;;4.43;2.23;;;13.20;1.00;;;;;;5050303;28;20482;-81
2023/09/23 06:02:37;;;;;;;7.43;2.60;;;15.40;82.20;;;;;;5051323;28;21050;-83
2023/09/23 06:05:03;;;;;;;2.77;1.50;;;17.40;99.90;;;;;;5053895;28;20428;-82
2023/09/23 06:07:31;;;;;;;3.70;1.90;;;19.40;1.00;;;;;;5051396;28;20435;-82
2023/09/23 06:09:58;;;;;;;2.30;1.43;;;20.90;99.90;;;;;;5053820;28;20436;-79
2023/09/23 06:12:29;;;;;;;7.13;1.87;;;22.20;99.90;;;;;;5053900;28;20455;-81
2023/09/23 06:15:00;;;;;;;4.93;1.80;;;23.50;99.90;;;;;;5039713;28;20959;-80
2023/09/23 06:17:29;;;;;;;3.03;1.40;;;24.70;99.90;;;;;;5053142;28;20430;-80
2023/09/23 06:19:58;;;;;;;3.77;1.30;;;26.10;99.90;;;;;;5057385;28;20433;-81
2023/09/23 06:22:23;;;;;;;6.60;2.00;;;25.10;99.90;;;;;;5054602;28;20845;-81
2023/09/23 06:24:50;;;;;;;6.37;2.03;;;23.10;99.90;;;;;;5052475;28;20437;-81
2023/09/23 06:27:16;;;;;;;2.17;1.73;;;21.50;99.90;;;;;;5053643;28;20209;-80
2023/09/23 06:29:42;;;;;;;3.93;1.40;;;21.70;99.90;;;;;;5049081;28;20936;-79
2023/09/23 06:32:08;;;;;;;5.90;1.70;;;24.10;99.90;;;;;;5034565;28;20582;-80
2023/09/23 06:34:34;;;;;;;5.77;1.60;;;26.20;99.90;;;;;;5051350;28;20625;-81
2023/09/23 06:36:59;;;;;;;4.97;1.50;;;27.80;99.90;;;;;;5052843;28;20887;-82
2023/09/23 06:39:25;;;;;;;2.50;1.27;;;29.40;99.90;;;;;;5030461;28;20172;-81
2023/09/23 06:41:50;;;;;;;5.00;1.63;;;30.70;99.90;;;;;;5049092;28;20224;-82
2023/09/23 06:44:16;;;;;;;4.70;1.57;;;31.80;99.90;;;;;;5054498;28;20238;-80
2023/09/23 06:46:41;;;;;;;3.33;1.70;;;32.70;99.90;;;;;;5062821;28;20182;-80
2023/09/23 06:49:07;;;;;;;2.60;1.43;;;33.00;99.90;;;;;;5053107;28;20190;-81
2023/09/23 06:51:32;;;;;;;4.27;1.53;;;33.90;1.00;;;;;;5036587;28;20208;-78
2023/09/23 06:53:58;;;;;;;3.27;1.20;;;;;;;;;;5054248;28;20261;-79
2023/09/23 06:56:24;;;;;;;4.03;1.23;;;34.90;1.00;;;;;;5050410;28;20182;-81
2023/09/23 06:58:49;;;;;;;9.40;1.60;;;35.00;1.00;;;;;;5053196;28;20436;-81
2023/09/23 07:01:15;;;;;;;4.30;1.53;;;35.70;1.00;;;;;;5051703;28;20196;-81
2023/09/23 07:03:40;;;;;;;2.47;1.27;;;;;;;;;;5035027;28;20620;-81
2023/09/23 07:06:06;;;;;;;4.00;1.60;;;;;;;;;;5053892;28;20265;-81
2023/09/23 07:08:32;;;;;;;4.63;1.70;;;;;;;;;;5058616;28;20251;-81
2023/09/23 07:10:58;;;;;;;4.47;1.40;;;;;;;;;;5051717;28;20190;-81
2023/09/23 07:13:24;;;;;;;3.57;1.30;;;;;;;;;;5051553;28;20200;-81
2023/09/23 07:15:50;;;;;;;2.37;1.17;;;;;;;;;;5033731;28;20308;-81
2023/09/23 07:18:16;;;;;;;3.80;1.50;;;;;;;;;;5057212;28;20435;-79
2023/09/23 07:20:42;;;;;;;4.33;1.87;;;;;;;;;;5051708;28;20224;-80
2023/09/23 07:23:08;;;;;;;2.97;1.40;;;;;;;;;;5049460;28;20662;-81
2023/09/23 07:25:38;;;;;;;2.77;1.07;;;;;;;;;;5052041;28;20445;-80
2023/09/23 07:28:06;;;;;;;3.27;1.10;;;;;;;;;;5048256;28;20528;-80
2023/09/23 07:30:36;;;;;;;3.80;1.43;;;;;;;;;;5051387;28;20417;-81
2023/09/23 07:33:02;;;;;;;4.07;1.23;;;;;;;;;;5051399;28;20994;-79
2023/09/23 07:35:35;;;;;;;3.47;1.50;;;;;;;;;;5039721;28;20425;-81
2023/09/23 07:38:01;;;;;;;3.50;1.37;;;;;;;;;;5054592;28;20440;-82
2023/09/23 07:40:28;;;;;;;2.93;1.53;;;;;;;;;;5055449;28;20433;-83
2023/09/23 07:42:54;;;;;;;4.30;1.70;;;;;;;;;;5056957;28;20559;-82
2023/09/23 07:45:20;;;;;;;3.97;1.40;;;;;;;;;;5056195;28;20425;-81
2023/09/23 07:47:46;;;;;;;5.00;1.57;;;;;;;;;;5062518;28;20412;-81
2023/09/23 07:50:12;;;;;;;4.90;1.67;;;;;;;;;;5054994;28;20236;-82
2023/09/23 07:52:38;;;;;;;3.80;1.50;;;;;;;;;;5038042;28;20213;-82
2023/09/23 07:55:07;;;;;;;2.73;1.57;;;;;;;;;;5056157;28;20436;-81
2023/09/23 07:57:33;;;;;;;3.53;1.50;;;;;;;;;;5036237;28;20475;-82
2023/09/23 07:59:59;;;;;;;3.83;1.43;;;;;;;;;;5035899;28;20436;-82
2023/09/23 08:02:25;;;;;;;2.87;1.20;;;;;;;;;;5053456;28;20445;-82
2023/09/23 08:04:51;;;;;;;3.60;1.60;;;;;;;;;;5061548;28;20424;-82
2023/09/23 08:07:18;;;;;;;2.80;1.50;;;;;;;;;;5035298;28;20786;-79
2023/09/23 08:09:44;;;;;;;3.87;1.90;;;;;;;;;;5052891;28;20272;-82
2023/09/23 08:12:10;;;;;;;2.97;1.60;;;;;;;;;;5053810;28;20468;-82
2023/09/23 08:14:36;;;;;;;3.47;1.80;;;;;;;;;;5062388;28;20416;-82
2023/09/23 08:17:02;;;;;;;5.03;1.40;;;;;;;;;;5061875;28;20444;-83
2023/09/23 08:19:28;;;;;;;6.33;1.60;;;;;;;;;;5054886;28;20899;-81
2023/09/23 08:21:54;;;;;;;2.17;1.30;;;;;;;;;;5053216;28;20445;-82
2023/09/23 08:24:21;;;;;;;3.10;1.70;;;;;;;;;;5061479;28;20197;-79
2023/09/23 08:26:47;;;;;;;4.33;2.13;;;;;;;;;;5036138;28;20922;-80
2023/09/23 08:29:14;;;;;;;2.60;1.30;;;;;;;;;;5060495;28;20954;-81
2023/09/23 08:31:40;;;;;;;6.30;2.27;;;;;;;;;;5034781;28;20468;-80
2023/09/23 08:34:09;;;;;;;6.43;1.60;;;;;;;;;;5039588;28;20496;-80
2023/09/23 08:36:35;;;;;;;4.20;2.47;;;;;;;;;;5063673;28;20208;-78
2023/09/23 08:39:07;;;;;;;2.70;1.43;;;;;;;;;;5051774;28;20434;-79
2023/09/23 08:41:34;;;;;;;4.97;1.73;;;;;;;;;;5059355;28;20436;-80
2023/09/23 08:44:04;;;;;;;7.73;2.07;;;;;;;;;;5051610;28;20450;-80
2023/09/23 08:46:31;;;;;;;3.90;2.30;;;;;;;;;;5059215;28;20408;-81
2023/09/23 08:48:58;;;;;;;3.20;2.10;;;;;;;;;;5063470;28;20467;-80
2023/09/23 08:51:25;;;;;;;2.77;1.50;;;;;;;;;;5067849;28;20467;-80
2023/09/23 08:53:52;;;;;;;4.80;2.23;;;;;;;;;;5054780;28;20427;-80
2023/09/23 08:56:19;;;;;;;7.97;2.70;;;;;;;;;;5054821;28;20936;-82
2023/09/23 08:58:45;;;;;;;4.70;2.00;;;;;;;;;;5053936;28;20909;-82
2023/09/23 09:01:11;;;;;;;5.67;2.27;;;;;;;;;;5052932;28;20404;-81
2023/09/23 09:03:37;;;;;;;9.20;2.23;;;;;;;;;;5035387;28;20434;-81
2023/09/23 09:06:03;;;;;;;7.30;2.10;;;;;;;;;;5051875;28;20914;-83
2023/09/23 09:08:32;;;;;;;5.97;2.17;;;;;;;;;;5032014;28;20442;-81
2023/09/23 09:10:59;;;;;;;6.63;2.60;;;;;;;;;;5055081;28;20445;-82
2023/09/23 09:13:25;;;;;;;4.17;1.63;;;;;;;;;;5069011;28;20491;-82
2023/09/23 09:15:51;;;;;;;5.10;1.90;;;;;;;;;;5064261;28;20416;-79
2023/09/23 09:18:17;;;;;;;4.80;2.77;;;;;;;;;;5062176;28;20436;-82
2023/09/23 09:20:43;;;;;;;4.10;2.00;;;;;;;;;;5068006;28;20909;-82
2023/09/23 09:23:16;;;;;;;3.70;1.70;;;;;;;;;;5055382;28;20470;-81
2023/09/23 09:25:49;;;;;;;3.90;1.80;;;;;;;;;;5054144;28;20432;-82
2023/09/23 09:28:16;;;;;;;3.07;1.33;;;;;;;;;;5052216;28;20474;-82
2023/09/23 09:30:43;;;;;;;4.20;1.63;;;;;;;;;;5059591;28;20415;-82
2023/09/23 09:33:10;;;;;;;4.57;1.87;;;;;;;;;;5055231;28;20463;-83
2023/09/23 09:35:38;;;;;;;5.20;1.50;;;;;;;;;;5047443;28;20837;-80
2023/09/23 09:38:08;;;;;;;5.07;1.47;;;;;;;;;;5063958;28;20419;-81
2023/09/23 09:40:34;;;;;;;8.40;2.10;;;;;;;;;;5062172;28;20411;-80
2023/09/23 09:43:00;;;;;;;2.43;1.60;;;;;;;;;;5055855;28;20538;-80
2023/09/23 09:45:26;;;;;;;4.13;1.57;;;;;;;;;;5061737;28;20913;-81
2023/09/23 09:47:53;;;;;;;5.43;2.50;;;;;;;;;;5065259;28;20415;-80
2023/09/23 09:50:19;;;;;;;4.63;1.60;;;;;;;;;;5054966;28;20439;-81
2023/09/23 09:52:46;;;;;;;4.07;1.63;;;;;;;;;;5054754;28;20479;-81
2023/09/23 09:55:24;;;;;;;5.03;1.47;;;;;;;;;;5058171;28;20477;-81
2023/09/23 09:57:52;;;;;;;4.80;1.53;;;;;;;;;;5060115;28;20439;-80
2023/09/23 10:02:48;;;;;;;3.23;1.40;;;;;;;;;;5058824;28;20439;-81
2023/09/23 10:05:17;;;;;;;2.90;1.30;;;;;;;;;;5059926;28;20423;-81
2023/09/23 10:07:55;;;;;;;2.03;1.00;;;;;;;;;;5067947;28;20556;-81
2023/09/23 10:10:31;;;;;;;2.77;1.37;;;;;;;;;;5061135;28;20445;-81
2023/09/23 10:12:59;;;;;;;5.03;1.60;;;;;;;;;;5067161;28;20463;-80
2023/09/23 10:15:28;;;;;;;2.47;1.17;;;;;;;;;;5059706;28;20825;-79
2023/09/23 10:17:54;;;;;;;3.10;1.20;;;;;;;;;;5062975;28;20781;-79
2023/09/23 10:20:24;;;;;;;5.73;1.37;;;;;;;;;;5043314;28;20533;-82
2023/09/23 10:22:53;;;;;;;5.10;1.30;;;;;;;;;;5067636;28;20560;-82
2023/09/23 10:25:20;;;;;;;2.73;0.90;;;;;;;;;;5041076;28;20436;-81
2023/09/23 10:28:00;;;;;;;2.90;1.20;;;;;;;;;;5059399;28;20545;-83
2023/09/23 10:30:26;;;;;;;3.70;1.00;;;;;;;;;;5059384;28;20494;-81
2023/09/23 10:32:52;;;;;;;4.03;1.50;;;;;;;;;;5057708;28;20476;-81
2023/09/23 10:35:26;;;;;;;3.70;1.40;;;;;;;;;;5066914;28;20424;-82
2023/09/23 10:37:52;;;;;;;4.60;1.47;;;;;;;;;;5059639;28;20424;-81
2023/09/23 10:40:18;;;;;;;3.10;1.70;;;;;;;;;;5078816;28;20416;-82
2023/09/23 10:42:47;;;;;;;2.63;1.10;;;;;;;;;;5044401;28;20882;-81
2023/09/23 10:45:14;;;;;;;2.53;1.40;;;;;;;;;;5032284;28;20998;-82
2023/09/23 10:47:40;;;;;;;2.97;1.40;;;;;;;;;;5047216;28;20417;-82
2023/09/23 10:50:07;;;;;;;4.33;1.50;;;;;;;;;;5065910;28;20430;-81
2023/09/23 10:52:33;;;;;;;3.83;2.10;;;;;;;;;;5062176;28;20482;-82
2023/09/23 10:54:59;;;;;;;2.67;1.40;;;;;;;;;;5039586;28;20409;-81
2023/09/23 10:57:26;;;;;;;4.13;1.43;;;;;;;;;;5057469;28;20415;-82
2023/09/23 10:59:53;;;;;;;3.13;1.10;;;;;;;;;;5058250;28;20415;-81
2023/09/23 11:02:20;;;;;;;4.07;1.10;;;;;;;;;;5066152;28;20439;-81
2023/09/23 11:04:48;;;;;;;4.30;1.23;;;;;;;;;;5058482;28;20415;-82
2023/09/23 11:07:14;;;;;;;2.20;1.00;;;;;;;;;;5057966;28;20415;-82
2023/09/23 11:09:41;;;;;;;3.57;1.33;;;;;;;;;;5057223;28;20455;-82
2023/09/23 11:12:10;;;;;;;3.10;1.40;;;;;;;;;;5060444;28;20560;-81
2023/09/23 11:14:36;;;;;;;1.87;1.00;;;;;;;;;;5063751;28;20446;-82
2023/09/23 11:17:03;;;;;;;6.20;1.90;;;;;;;;;;5059299;28;20443;-80
2023/09/23 11:19:28;;;;;;;2.37;1.10;;;;;;;;;;5064252;28;20466;-80
2023/09/23 11:21:54;;;;;;;3.80;1.57;;;;;;;;;;5058475;28;20436;-82
2023/09/23 11:24:21;;;;;;;2.50;1.50;;;;;;;;;;5041969;28;20902;-81
2023/09/23 11:26:47;;;;;;;2.93;1.53;;;;;;;;;;5049037;28;20432;-81
2023/09/23 11:29:13;;;;;;;3.77;1.97;;;;;;;;;;5070757;28;20514;-79
2023/09/23 11:31:39;;;;;;;4.80;1.93;;;24.30;1.00;;;;;;5078791;28;20490;-82
2023/09/23 11:34:04;;;;;;;4.77;1.40;;;24.40;1.00;;;;;;5067709;28;20413;-82
2023/09/23 11:36:30;;;;;;;3.13;1.60;;;26.00;1.00;;;;;;5048776;28;20188;-80
2023/09/23 11:38:55;;;;;;;2.30;1.27;;;27.10;1.00;;;;;;5058433;28;20176;-82
2023/09/23 11:41:21;;;;;;;4.77;1.27;;;28.40;1.00;;;;;;5064729;28;20644;-82
2023/09/23 11:43:50;;;;;;;3.50;1.50;;;28.70;1.00;;;;;;5063542;28;20179;-82
2023/09/23 11:46:19;;;;;;;2.97;1.20;;;29.70;1.00;;;;;;5038837;28;20198;-82
2023/09/23 11:48:48;;;;;;;3.50;1.50;;;29.20;99.90;;;;;;5056655;28;20503;-80
2023/09/23 11:51:14;;;;;;;4.00;1.70;;;28.90;99.90;;;;;;5056628;28;20801;-81
2023/09/23 11:53:41;;;;;;;4.57;1.90;;;28.10;99.90;;;;;;5063448;28;20515;-81
2023/09/23 11:56:06;;;;;;;3.47;1.40;;;27.10;99.90;;;;;;5055694;28;20424;-80
2023/09/23 11:58:32;;;;;;;3.93;1.47;;;26.20;1.00;;;;;;5064187;28;20421;-81
2023/09/23 12:00:57;;;;;;;2.00;1.50;;;25.70;1.00;;;;;;5065214;28;20170;-81
2023/09/23 12:03:25;;;;;;;2.50;1.40;;;25.30;1.00;;;;;;5056038;28;20271;-82
2023/09/23 12:05:51;;;;;;;7.10;1.77;;;25.00;1.00;;;;;;5038924;28;20178;-82
2023/09/23 12:08:16;;;;;;;3.97;2.00;;;25.00;1.00;;;;;;5062552;28;20440;-81
2023/09/23 12:10:42;;;;;;;2.70;1.67;;;25.40;1.00;;;;;;5056548;28;20192;-83
2023/09/23 12:13:07;;;;;;;2.43;1.60;;;25.50;1.00;;;;;;5038106;28;20260;-81
2023/09/23 12:15:34;;;;;;;3.73;1.70;;;25.40;1.00;;;;;;5037933;28;20197;-81
2023/09/23 12:18:00;;;;;;;3.33;1.70;;;25.20;1.00;;;;;;5056248;28;20651;-82
2023/09/23 12:20:26;;;;;;;5.00;1.50;;;25.70;1.00;;;;;;5056167;28;20426;-81
2023/09/23 12:22:57;;;;;;;3.77;1.60;;;26.30;1.00;;;;;;5063417;28;20443;-81
2023/09/23 12:25:22;;;;;;;6.23;1.80;;;26.20;1.00;;;;;;5048988;28;20439;-81
2023/09/23 12:27:48;;;;;;;4.17;1.30;;;26.50;1.00;;;;;;5055798;28;20426;-81
2023/09/23 12:30:17;;;;;;;6.33;1.60;;;26.60;1.00;;;;;;5057561;28;20270;-81
2023/09/23 12:32:42;;;;;;;3.90;1.70;;;26.30;1.00;;;;;;5060293;28;20202;-81
2023/09/23 12:35:09;;;;;;;3.00;1.50;;;25.70;1.00;;;;;;5056141;28;20423;-81
2023/09/23 12:37:35;;;;;;;4.50;1.40;;;25.30;1.00;;;;;;5060958;28;20187;-81
2023/09/23 12:40:00;;;;;;;4.53;1.67;;;25.10;1.00;;;;;;5066884;28;20428;-81
2023/09/23 12:42:26;;;;;;;6.23;1.60;;;24.90;1.00;;;;;;5045459;28;20222;-82
2023/09/23 12:44:51;;;;;;;4.60;1.53;;;24.50;1.00;;;;;;5038926;28;20183;-80
2023/09/23 12:47:17;;;;;;;3.50;1.57;;;24.10;1.00;;;;;;5056414;28;20201;-79
2023/09/23 12:49:43;;;;;;;3.67;1.40;;;23.90;1.00;;;;;;5062002;28;20211;-82
2023/09/23 12:52:09;;;;;;;4.77;1.53;;;23.80;1.00;;;;;;5057770;28;20298;-83
2023/09/23 12:54:35;;;;;;;2.53;1.23;;;24.00;1.00;;;;;;5056797;28;20412;-81
2023/09/23 12:57:00;;;;;;;3.03;1.47;;;25.00;1.00;;;;;;5056231;28;20237;-82
2023/09/23 12:59:26;;;;;;;4.80;1.50;;;25.40;1.00;;;;;;5067141;28;20177;-81
2023/09/23 13:01:51;;;;;;;3.90;1.43;;;25.00;1.00;;;;;;5069208;28;20209;-81
2023/09/23 13:04:18;;;;;;;2.60;1.40;;;24.40;1.00;;;;;;5059926;28;20196;-82
2023/09/23 13:06:43;;;;;;;3.30;1.37;;;24.60;1.00;;;;;;5068278;28;20176;-81
2023/09/23 13:09:09;;;;;;;2.77;1.20;;;25.40;1.00;;;;;;5040978;28;20425;-80
2023/09/23 13:11:35;;;;;;;3.33;1.20;;;26.20;1.00;;;;;;5060100;28;20628;-80
2023/09/23 13:14:00;;;;;;;4.23;1.60;;;25.80;1.00;;;;;;5050614;28;20510;-82
2023/09/23 13:16:26;;;;;;;4.03;1.37;;;25.20;1.00;;;;;;5064679;28;20204;-82
2023/09/23 13:18:52;;;;;;;3.93;1.33;;;24.60;1.00;;;;;;5071228;28;20170;-81
2023/09/23 13:21:18;;;;;;;2.80;1.40;;;24.20;1.00;;;;;;5069852;28;20420;-81
2023/09/23 13:23:43;;;;;;;3.93;1.50;;;24.00;1.00;;;;;;5060478;28;20450;-82
2023/09/23 13:26:09;;;;;;;4.17;1.63;;;23.80;1.00;;;;;;5061136;28;20713;-81
2023/09/23 13:28:37;;;;;;;4.70;1.43;;;23.50;1.00;;;;;;5067819;28;20178;-80